sensor_id;sensor_type;location;lat;lon;timestamp;P1;durP1;ratioP1;P2;durP2;ratioP2
55031;SDS011;40928;51.076;7.950;2022-09-21T00:01:23;2.00;;;1.00;;
55031;SDS011;40928;51.076;7.950;2022-09-21T00:03:53;1.40;;;0.90;;
55031;SDS011;40928;51.076;7.950;2022-09-21T00:06:21;1.23;;;0.80;;
55031;SDS011;40928;51.076;7.950;2022-09-21T00:08:49;3.00;;;0.82;;
55031;SDS011;40928;51.076;7.950;2022-09-21T00:11:16;5.30;;;0.90;;
55031;SDS011;40928;51.076;7.950;2022-09-21T00:13:44;2.55;;;0.90;;
55031;SDS011;40928;51.076;7.950;2022-09-21T00:16:11;2.15;;;0.80;;
55031;SDS011;40928;51.076;7.950;2022-09-21T00:18:37;0.93;;;0.70;;
55031;SDS011;40928;51.076;7.950;2022-09-21T00:21:10;0.77;;;0.70;;
55031;SDS011;40928;51.076;7.950;2022-09-21T00:23:37;1.98;;;1.00;;
55031;SDS011;40928;51.076;7.950;2022-09-21T00:26:06;1.58;;;0.82;;
55031;SDS011;40928;51.076;7.950;2022-09-21T00:28:34;1.90;;;0.60;;
55031;SDS011;40928;51.076;7.950;2022-09-21T00:31:01;0.95;;;0.68;;
55031;SDS011;40928;51.076;7.950;2022-09-21T00:33:31;2.15;;;1.08;;
55031;SDS011;40928;51.076;7.950;2022-09-21T00:36:01;8.23;;;0.80;;
55031;SDS011;40928;51.076;7.950;2022-09-21T00:38:31;2.67;;;0.98;;
55031;SDS011;40928;51.076;7.950;2022-09-21T00:40:58;2.22;;;1.23;;
55031;SDS011;40928;51.076;7.950;2022-09-21T00:43:24;3.28;;;1.35;;
55031;SDS011;40928;51.076;7.950;2022-09-21T00:45:49;2.03;;;1.20;;
55031;SDS011;40928;51.076;7.950;2022-09-21T00:48:23;2.42;;;1.23;;
55031;SDS011;40928;51.076;7.950;2022-09-21T00:50:50;2.33;;;1.17;;
55031;SDS011;40928;51.076;7.950;2022-09-21T00:53:19;4.90;;;1.52;;
55031;SDS011;40928;51.076;7.950;2022-09-21T00:55:47;3.25;;;1.45;;
55031;SDS011;40928;51.076;7.950;2022-09-21T00:58:17;7.55;;;2.50;;
55031;SDS011;40928;51.076;7.950;2022-09-21T01:00:56;3.75;;;1.90;;
55031;SDS011;40928;51.076;7.950;2022-09-21T01:03:23;6.43;;;2.20;;
55031;SDS011;40928;51.076;7.950;2022-09-21T01:05:49;3.80;;;2.15;;
55031;SDS011;40928;51.076;7.950;2022-09-21T01:08:14;10.52;;;3.83;;
55031;SDS011;40928;51.076;7.950;2022-09-21T01:13:27;7.82;;;3.00;;
55031;SDS011;40928;51.076;7.950;2022-09-21T01:16:06;6.97;;;2.80;;
55031;SDS011;40928;51.076;7.950;2022-09-21T01:18:49;5.35;;;2.10;;
55031;SDS011;40928;51.076;7.950;2022-09-21T01:21:24;5.88;;;2.85;;
55031;SDS011;40928;51.076;7.950;2022-09-21T01:31:41;7.30;;;2.60;;
55031;SDS011;40928;51.076;7.950;2022-09-21T01:35:00;5.07;;;2.25;;
55031;SDS011;40928;51.076;7.950;2022-09-21T01:37:25;7.30;;;1.90;;
55031;SDS011;40928;51.076;7.950;2022-09-21T01:40:09;6.15;;;2.20;;
55031;SDS011;40928;51.076;7.950;2022-09-21T01:42:39;3.13;;;2.03;;
55031;SDS011;40928;51.076;7.950;2022-09-21T01:45:07;5.80;;;1.80;;
55031;SDS011;40928;51.076;7.950;2022-09-21T01:47:36;2.53;;;1.48;;
55031;SDS011;40928;51.076;7.950;2022-09-21T01:50:06;2.28;;;1.40;;
55031;SDS011;40928;51.076;7.950;2022-09-21T01:55:29;2.95;;;1.48;;
55031;SDS011;40928;51.076;7.950;2022-09-21T01:58:21;5.30;;;1.60;;
55031;SDS011;40928;51.076;7.950;2022-09-21T02:00:54;2.58;;;1.60;;
55031;SDS011;40928;51.076;7.950;2022-09-21T02:03:24;3.42;;;1.23;;
55031;SDS011;40928;51.076;7.950;2022-09-21T02:05:55;3.03;;;1.85;;
55031;SDS011;40928;51.076;7.950;2022-09-21T02:08:22;13.43;;;1.88;;
55031;SDS011;40928;51.076;7.950;2022-09-21T02:10:51;4.38;;;1.30;;
55031;SDS011;40928;51.076;7.950;2022-09-21T02:13:18;4.20;;;1.33;;
55031;SDS011;40928;51.076;7.950;2022-09-21T02:18:39;4.32;;;1.25;;
55031;SDS011;40928;51.076;7.950;2022-09-21T02:21:33;2.25;;;1.08;;
55031;SDS011;40928;51.076;7.950;2022-09-21T02:24:13;2.60;;;1.25;;
55031;SDS011;40928;51.076;7.950;2022-09-21T02:26:49;5.80;;;1.35;;
55031;SDS011;40928;51.076;7.950;2022-09-21T02:31:58;6.13;;;1.20;;
55031;SDS011;40928;51.076;7.950;2022-09-21T02:34:40;4.57;;;1.52;;
55031;SDS011;40928;51.076;7.950;2022-09-21T02:37:19;5.25;;;1.48;;
55031;SDS011;40928;51.076;7.950;2022-09-21T02:39:57;3.25;;;1.30;;
55031;SDS011;40928;51.076;7.950;2022-09-21T02:42:31;2.47;;;1.30;;
55031;SDS011;40928;51.076;7.950;2022-09-21T02:50:05;3.95;;;1.15;;
55031;SDS011;40928;51.076;7.950;2022-09-21T02:52:37;3.83;;;1.20;;
55031;SDS011;40928;51.076;7.950;2022-09-21T02:55:06;5.30;;;1.60;;
55031;SDS011;40928;51.076;7.950;2022-09-21T02:57:36;2.85;;;1.30;;
55031;SDS011;40928;51.076;7.950;2022-09-21T03:00:03;3.80;;;1.75;;
55031;SDS011;40928;51.076;7.950;2022-09-21T03:02:37;4.85;;;1.75;;
55031;SDS011;40928;51.076;7.950;2022-09-21T03:05:04;4.93;;;1.67;;
55031;SDS011;40928;51.076;7.950;2022-09-21T03:07:30;5.53;;;2.15;;
55031;SDS011;40928;51.076;7.950;2022-09-21T03:09:56;3.45;;;1.65;;
55031;SDS011;40928;51.076;7.950;2022-09-21T03:12:22;7.03;;;2.50;;
55031;SDS011;40928;51.076;7.950;2022-09-21T03:14:48;5.78;;;2.03;;
55031;SDS011;40928;51.076;7.950;2022-09-21T03:17:15;4.40;;;1.92;;
55031;SDS011;40928;51.076;7.950;2022-09-21T03:19:40;6.55;;;2.58;;
55031;SDS011;40928;51.076;7.950;2022-09-21T03:22:06;6.10;;;2.20;;
55031;SDS011;40928;51.076;7.950;2022-09-21T03:24:31;4.85;;;1.98;;
55031;SDS011;40928;51.076;7.950;2022-09-21T03:27:16;5.95;;;2.10;;
55031;SDS011;40928;51.076;7.950;2022-09-21T03:29:44;8.23;;;2.25;;
55031;SDS011;40928;51.076;7.950;2022-09-21T03:32:10;6.07;;;2.20;;
55031;SDS011;40928;51.076;7.950;2022-09-21T03:34:36;3.25;;;2.05;;
55031;SDS011;40928;51.076;7.950;2022-09-21T03:37:02;6.47;;;2.15;;
55031;SDS011;40928;51.076;7.950;2022-09-21T03:39:29;4.85;;;2.47;;
55031;SDS011;40928;51.076;7.950;2022-09-21T03:41:55;7.47;;;3.08;;
55031;SDS011;40928;51.076;7.950;2022-09-21T03:44:22;6.57;;;1.88;;
55031;SDS011;40928;51.076;7.950;2022-09-21T03:46:49;8.30;;;1.52;;
55031;SDS011;40928;51.076;7.950;2022-09-21T03:49:17;4.45;;;2.13;;
55031;SDS011;40928;51.076;7.950;2022-09-21T03:51:43;9.18;;;2.40;;
55031;SDS011;40928;51.076;7.950;2022-09-21T03:54:08;3.63;;;1.98;;
55031;SDS011;40928;51.076;7.950;2022-09-21T03:56:34;5.40;;;2.05;;
55031;SDS011;40928;51.076;7.950;2022-09-21T03:59:00;7.93;;;2.67;;
55031;SDS011;40928;51.076;7.950;2022-09-21T04:01:26;4.20;;;1.95;;
55031;SDS011;40928;51.076;7.950;2022-09-21T04:03:51;4.10;;;1.80;;
55031;SDS011;40928;51.076;7.950;2022-09-21T04:06:18;4.18;;;2.08;;
55031;SDS011;40928;51.076;7.950;2022-09-21T04:08:43;8.25;;;1.83;;
55031;SDS011;40928;51.076;7.950;2022-09-21T04:11:09;3.13;;;1.65;;
55031;SDS011;40928;51.076;7.950;2022-09-21T04:13:39;5.03;;;1.98;;
55031;SDS011;40928;51.076;7.950;2022-09-21T04:16:07;3.38;;;1.77;;
55031;SDS011;40928;51.076;7.950;2022-09-21T04:18:34;3.28;;;1.80;;
55031;SDS011;40928;51.076;7.950;2022-09-21T04:21:00;4.82;;;2.05;;
55031;SDS011;40928;51.076;7.950;2022-09-21T04:23:25;5.88;;;2.20;;
55031;SDS011;40928;51.076;7.950;2022-09-21T04:25:52;5.00;;;1.90;;
55031;SDS011;40928;51.076;7.950;2022-09-21T04:28:19;5.72;;;2.28;;
55031;SDS011;40928;51.076;7.950;2022-09-21T04:30:45;7.88;;;2.30;;
55031;SDS011;40928;51.076;7.950;2022-09-21T04:33:11;4.97;;;2.22;;
55031;SDS011;40928;51.076;7.950;2022-09-21T04:35:36;4.95;;;2.17;;
55031;SDS011;40928;51.076;7.950;2022-09-21T04:38:03;5.10;;;2.13;;
55031;SDS011;40928;51.076;7.950;2022-09-21T04:40:28;3.67;;;2.25;;
55031;SDS011;40928;51.076;7.950;2022-09-21T04:42:55;3.75;;;1.88;;
55031;SDS011;40928;51.076;7.950;2022-09-21T04:45:20;12.88;;;2.65;;
55031;SDS011;40928;51.076;7.950;2022-09-21T04:47:47;4.70;;;1.77;;
55031;SDS011;40928;51.076;7.950;2022-09-21T04:50:13;8.05;;;1.75;;
55031;SDS011;40928;51.076;7.950;2022-09-21T04:52:40;3.30;;;1.52;;
55031;SDS011;40928;51.076;7.950;2022-09-21T04:55:06;4.18;;;2.00;;
55031;SDS011;40928;51.076;7.950;2022-09-21T04:57:32;6.72;;;2.00;;
55031;SDS011;40928;51.076;7.950;2022-09-21T04:59:59;3.55;;;1.98;;
55031;SDS011;40928;51.076;7.950;2022-09-21T05:02:25;3.95;;;1.85;;
55031;SDS011;40928;51.076;7.950;2022-09-21T05:04:51;3.72;;;1.92;;
55031;SDS011;40928;51.076;7.950;2022-09-21T05:07:16;4.40;;;1.67;;
55031;SDS011;40928;51.076;7.950;2022-09-21T05:09:42;4.60;;;1.63;;
55031;SDS011;40928;51.076;7.950;2022-09-21T05:12:26;4.38;;;2.00;;
55031;SDS011;40928;51.076;7.950;2022-09-21T05:14:51;3.22;;;1.73;;
55031;SDS011;40928;51.076;7.950;2022-09-21T05:17:17;4.45;;;1.80;;
55031;SDS011;40928;51.076;7.950;2022-09-21T05:19:46;3.60;;;1.30;;
55031;SDS011;40928;51.076;7.950;2022-09-21T05:22:12;6.63;;;1.70;;
55031;SDS011;40928;51.076;7.950;2022-09-21T05:24:38;4.70;;;1.92;;
55031;SDS011;40928;51.076;7.950;2022-09-21T05:27:03;3.25;;;1.48;;
55031;SDS011;40928;51.076;7.950;2022-09-21T05:29:29;3.55;;;1.88;;
55031;SDS011;40928;51.076;7.950;2022-09-21T05:40:03;3.40;;;2.22;;
55031;SDS011;40928;51.076;7.950;2022-09-21T05:42:30;4.47;;;2.20;;
55031;SDS011;40928;51.076;7.950;2022-09-21T05:44:56;3.15;;;1.60;;
55031;SDS011;40928;51.076;7.950;2022-09-21T05:47:23;5.82;;;2.00;;
55031;SDS011;40928;51.076;7.950;2022-09-21T05:50:02;6.30;;;1.95;;
55031;SDS011;40928;51.076;7.950;2022-09-21T05:52:49;5.18;;;2.50;;
55031;SDS011;40928;51.076;7.950;2022-09-21T06:03:49;4.85;;;2.60;;
55031;SDS011;40928;51.076;7.950;2022-09-21T06:06:18;4.70;;;2.63;;
55031;SDS011;40928;51.076;7.950;2022-09-21T06:08:45;5.82;;;2.88;;
55031;SDS011;40928;51.076;7.950;2022-09-21T06:11:10;16.75;;;4.15;;
55031;SDS011;40928;51.076;7.950;2022-09-21T06:13:37;8.48;;;3.33;;
55031;SDS011;40928;51.076;7.950;2022-09-21T06:16:05;9.60;;;4.22;;
55031;SDS011;40928;51.076;7.950;2022-09-21T06:18:35;9.70;;;4.10;;
55031;SDS011;40928;51.076;7.950;2022-09-21T06:21:02;9.80;;;4.10;;
55031;SDS011;40928;51.076;7.950;2022-09-21T06:23:27;6.72;;;3.92;;
55031;SDS011;40928;51.076;7.950;2022-09-21T06:25:53;5.97;;;3.90;;
55031;SDS011;40928;51.076;7.950;2022-09-21T06:28:18;8.85;;;4.22;;
55031;SDS011;40928;51.076;7.950;2022-09-21T06:30:49;9.40;;;3.58;;
55031;SDS011;40928;51.076;7.950;2022-09-21T06:33:18;9.43;;;5.00;;
55031;SDS011;40928;51.076;7.950;2022-09-21T06:35:57;10.80;;;4.13;;
55031;SDS011;40928;51.076;7.950;2022-09-21T06:38:24;13.18;;;5.00;;
55031;SDS011;40928;51.076;7.950;2022-09-21T06:40:53;10.38;;;4.90;;
55031;SDS011;40928;51.076;7.950;2022-09-21T06:43:19;9.70;;;4.97;;
55031;SDS011;40928;51.076;7.950;2022-09-21T06:45:55;9.63;;;4.20;;
55031;SDS011;40928;51.076;7.950;2022-09-21T06:48:22;11.57;;;4.22;;
55031;SDS011;40928;51.076;7.950;2022-09-21T06:50:49;7.38;;;3.78;;
55031;SDS011;40928;51.076;7.950;2022-09-21T06:53:14;7.40;;;3.63;;
55031;SDS011;40928;51.076;7.950;2022-09-21T06:55:42;8.13;;;4.40;;
55031;SDS011;40928;51.076;7.950;2022-09-21T06:58:07;7.43;;;3.50;;
55031;SDS011;40928;51.076;7.950;2022-09-21T07:00:33;5.90;;;3.50;;
55031;SDS011;40928;51.076;7.950;2022-09-21T07:02:59;11.32;;;3.30;;
55031;SDS011;40928;51.076;7.950;2022-09-21T07:05:27;8.40;;;3.17;;
55031;SDS011;40928;51.076;7.950;2022-09-21T07:07:56;9.68;;;3.10;;
55031;SDS011;40928;51.076;7.950;2022-09-21T07:10:22;3.97;;;2.35;;
55031;SDS011;40928;51.076;7.950;2022-09-21T07:12:48;6.07;;;3.45;;
55031;SDS011;40928;51.076;7.950;2022-09-21T07:15:16;5.25;;;3.65;;
55031;SDS011;40928;51.076;7.950;2022-09-21T07:17:43;9.57;;;5.07;;
55031;SDS011;40928;51.076;7.950;2022-09-21T07:20:09;9.15;;;4.18;;
55031;SDS011;40928;51.076;7.950;2022-09-21T07:22:35;5.93;;;2.78;;
55031;SDS011;40928;51.076;7.950;2022-09-21T07:25:02;5.47;;;2.80;;
55031;SDS011;40928;51.076;7.950;2022-09-21T07:27:29;3.13;;;2.13;;
55031;SDS011;40928;51.076;7.950;2022-09-21T07:29:56;2.55;;;1.50;;
55031;SDS011;40928;51.076;7.950;2022-09-21T07:32:21;2.15;;;1.48;;
55031;SDS011;40928;51.076;7.950;2022-09-21T07:34:47;3.08;;;1.75;;
55031;SDS011;40928;51.076;7.950;2022-09-21T07:37:13;7.50;;;1.60;;
55031;SDS011;40928;51.076;7.950;2022-09-21T07:39:39;2.38;;;1.50;;
55031;SDS011;40928;51.076;7.950;2022-09-21T07:42:05;2.60;;;1.73;;
55031;SDS011;40928;51.076;7.950;2022-09-21T07:44:31;2.30;;;1.77;;
55031;SDS011;40928;51.076;7.950;2022-09-21T07:46:57;4.15;;;1.52;;
55031;SDS011;40928;51.076;7.950;2022-09-21T07:49:22;2.88;;;1.75;;
55031;SDS011;40928;51.076;7.950;2022-09-21T07:51:48;2.08;;;1.27;;
55031;SDS011;40928;51.076;7.950;2022-09-21T07:54:14;2.28;;;1.30;;
55031;SDS011;40928;51.076;7.950;2022-09-21T07:56:40;2.13;;;1.35;;
55031;SDS011;40928;51.076;7.950;2022-09-21T07:59:07;2.40;;;1.63;;
55031;SDS011;40928;51.076;7.950;2022-09-21T08:01:36;3.67;;;1.25;;
55031;SDS011;40928;51.076;7.950;2022-09-21T08:04:04;3.92;;;1.58;;
55031;SDS011;40928;51.076;7.950;2022-09-21T08:06:31;2.30;;;1.40;;
55031;SDS011;40928;51.076;7.950;2022-09-21T08:08:58;1.45;;;1.13;;
55031;SDS011;40928;51.076;7.950;2022-09-21T08:11:25;2.25;;;1.42;;
55031;SDS011;40928;51.076;7.950;2022-09-21T08:13:52;1.55;;;1.13;;
55031;SDS011;40928;51.076;7.950;2022-09-21T08:16:19;2.72;;;1.48;;
55031;SDS011;40928;51.076;7.950;2022-09-21T08:18:45;4.50;;;1.40;;
55031;SDS011;40928;51.076;7.950;2022-09-21T08:21:12;1.55;;;1.15;;
55031;SDS011;40928;51.076;7.950;2022-09-21T08:23:38;2.95;;;1.67;;
55031;SDS011;40928;51.076;7.950;2022-09-21T08:26:07;3.55;;;1.67;;
55031;SDS011;40928;51.076;7.950;2022-09-21T08:28:36;4.25;;;2.70;;
55031;SDS011;40928;51.076;7.950;2022-09-21T08:31:03;3.80;;;2.83;;
55031;SDS011;40928;51.076;7.950;2022-09-21T08:33:31;3.97;;;2.20;;
55031;SDS011;40928;51.076;7.950;2022-09-21T08:35:58;3.90;;;2.10;;
55031;SDS011;40928;51.076;7.950;2022-09-21T08:38:25;1.95;;;1.27;;
55031;SDS011;40928;51.076;7.950;2022-09-21T08:40:51;4.15;;;1.75;;
55031;SDS011;40928;51.076;7.950;2022-09-21T08:43:29;3.03;;;1.48;;
55031;SDS011;40928;51.076;7.950;2022-09-21T08:46:02;4.32;;;1.90;;
55031;SDS011;40928;51.076;7.950;2022-09-21T08:48:32;2.75;;;1.15;;
55031;SDS011;40928;51.076;7.950;2022-09-21T08:51:05;12.35;;;6.60;;
55031;SDS011;40928;51.076;7.950;2022-09-21T08:53:34;5.88;;;2.35;;
55031;SDS011;40928;51.076;7.950;2022-09-21T08:56:03;7.28;;;3.80;;
55031;SDS011;40928;51.076;7.950;2022-09-21T08:58:30;3.25;;;1.20;;
55031;SDS011;40928;51.076;7.950;2022-09-21T09:03:51;7.30;;;3.70;;
55031;SDS011;40928;51.076;7.950;2022-09-21T09:06:54;4.82;;;2.00;;
55031;SDS011;40928;51.076;7.950;2022-09-21T09:22:46;2.67;;;1.13;;
55031;SDS011;40928;51.076;7.950;2022-09-21T09:25:24;0.60;;;0.40;;
55031;SDS011;40928;51.076;7.950;2022-09-21T09:27:52;2.60;;;0.32;;
55031;SDS011;40928;51.076;7.950;2022-09-21T09:30:24;3.13;;;0.40;;
55031;SDS011;40928;51.076;7.950;2022-09-21T09:40:57;3.58;;;0.60;;
55031;SDS011;40928;51.076;7.950;2022-09-21T09:51:47;5.25;;;1.02;;
55031;SDS011;40928;51.076;7.950;2022-09-21T09:54:14;2.35;;;0.60;;
55031;SDS011;40928;51.076;7.950;2022-09-21T09:56:42;8.43;;;0.70;;
55031;SDS011;40928;51.076;7.950;2022-09-21T10:07:44;5.05;;;1.25;;
55031;SDS011;40928;51.076;7.950;2022-09-21T10:15:59;6.38;;;1.52;;
55031;SDS011;40928;51.076;7.950;2022-09-21T10:18:37;1.38;;;0.98;;
55031;SDS011;40928;51.076;7.950;2022-09-21T10:21:21;2.13;;;0.80;;
55031;SDS011;40928;51.076;7.950;2022-09-21T10:23:58;3.13;;;1.00;;
55031;SDS011;40928;51.076;7.950;2022-09-21T10:27:10;6.72;;;1.00;;
55031;SDS011;40928;51.076;7.950;2022-09-21T10:32:00;4.43;;;1.00;;
55031;SDS011;40928;51.076;7.950;2022-09-21T10:34:28;3.92;;;1.10;;
55031;SDS011;40928;51.076;7.950;2022-09-21T10:36:57;2.92;;;0.93;;
55031;SDS011;40928;51.076;7.950;2022-09-21T10:39:28;2.95;;;0.70;;
55031;SDS011;40928;51.076;7.950;2022-09-21T10:44:25;9.18;;;4.72;;
55031;SDS011;40928;51.076;7.950;2022-09-21T10:46:57;3.92;;;1.92;;
55031;SDS011;40928;51.076;7.950;2022-09-21T10:49:27;5.80;;;1.00;;
55031;SDS011;40928;51.076;7.950;2022-09-21T10:51:54;3.38;;;0.98;;
55031;SDS011;40928;51.076;7.950;2022-09-21T10:54:26;3.92;;;0.80;;
55031;SDS011;40928;51.076;7.950;2022-09-21T10:56:55;10.27;;;0.80;;
55031;SDS011;40928;51.076;7.950;2022-09-21T10:59:28;1.90;;;0.60;;
55031;SDS011;40928;51.076;7.950;2022-09-21T11:01:56;4.63;;;0.47;;
55031;SDS011;40928;51.076;7.950;2022-09-21T11:04:37;3.35;;;0.57;;
55031;SDS011;40928;51.076;7.950;2022-09-21T11:07:17;2.55;;;0.50;;
55031;SDS011;40928;51.076;7.950;2022-09-21T11:09:47;2.13;;;0.68;;
55031;SDS011;40928;51.076;7.950;2022-09-21T11:12:36;2.83;;;0.47;;
55031;SDS011;40928;51.076;7.950;2022-09-21T11:26:09;1.90;;;0.80;;
55031;SDS011;40928;51.076;7.950;2022-09-21T11:31:19;3.03;;;1.52;;
55031;SDS011;40928;51.076;7.950;2022-09-21T11:36:24;4.57;;;2.55;;
55031;SDS011;40928;51.076;7.950;2022-09-21T11:42:34;3.08;;;0.30;;
55031;SDS011;40928;51.076;7.950;2022-09-21T11:45:07;2.63;;;0.40;;
55031;SDS011;40928;51.076;7.950;2022-09-21T11:50:27;3.70;;;0.50;;
55031;SDS011;40928;51.076;7.950;2022-09-21T12:06:34;0.70;;;0.30;;
55031;SDS011;40928;51.076;7.950;2022-09-21T12:12:04;1.95;;;0.60;;
55031;SDS011;40928;51.076;7.950;2022-09-21T12:14:38;1.98;;;0.35;;
55031;SDS011;40928;51.076;7.950;2022-09-21T12:22:56;2.60;;;0.22;;
55031;SDS011;40928;51.076;7.950;2022-09-21T12:27:41;15.65;;;10.02;;
55031;SDS011;40928;51.076;7.950;2022-09-21T12:30:17;6.07;;;2.70;;
55031;SDS011;40928;51.076;7.950;2022-09-21T12:32:48;4.07;;;2.10;;
55031;SDS011;40928;51.076;7.950;2022-09-21T12:40:39;4.90;;;0.50;;
55031;SDS011;40928;51.076;7.950;2022-09-21T12:43:58;27.08;;;4.88;;
55031;SDS011;40928;51.076;7.950;2022-09-21T12:46:08;19.55;;;4.32;;
55031;SDS011;40928;51.076;7.950;2022-09-21T12:48:39;28.00;;;7.10;;
55031;SDS011;40928;51.076;7.950;2022-09-21T12:53:38;9.68;;;2.05;;
55031;SDS011;40928;51.076;7.950;2022-09-21T12:59:29;18.08;;;2.90;;
55031;SDS011;40928;51.076;7.950;2022-09-21T13:02:11;5.85;;;1.40;;
55031;SDS011;40928;51.076;7.950;2022-09-21T13:12:43;4.18;;;0.30;;
55031;SDS011;40928;51.076;7.950;2022-09-21T13:17:57;7.50;;;2.05;;
55031;SDS011;40928;51.076;7.950;2022-09-21T13:20:26;4.28;;;0.63;;
55031;SDS011;40928;51.076;7.950;2022-09-21T13:22:58;20.40;;;2.28;;
55031;SDS011;40928;51.076;7.950;2022-09-21T13:25:27;39.63;;;5.45;;
55031;SDS011;40928;51.076;7.950;2022-09-21T13:28:02;8.93;;;1.83;;
55031;SDS011;40928;51.076;7.950;2022-09-21T13:30:42;12.32;;;1.65;;
55031;SDS011;40928;51.076;7.950;2022-09-21T13:38:25;20.63;;;2.13;;
55031;SDS011;40928;51.076;7.950;2022-09-21T13:51:35;5.60;;;0.85;;
55031;SDS011;40928;51.076;7.950;2022-09-21T13:54:16;7.60;;;1.17;;
55031;SDS011;40928;51.076;7.950;2022-09-21T13:56:43;14.02;;;2.28;;
55031;SDS011;40928;51.076;7.950;2022-09-21T13:59:18;10.77;;;1.52;;
55031;SDS011;40928;51.076;7.950;2022-09-21T14:01:47;11.07;;;1.17;;
55031;SDS011;40928;51.076;7.950;2022-09-21T14:04:19;22.88;;;2.75;;
55031;SDS011;40928;51.076;7.950;2022-09-21T14:06:49;8.90;;;0.95;;
55031;SDS011;40928;51.076;7.950;2022-09-21T14:09:28;5.35;;;1.02;;
55031;SDS011;40928;51.076;7.950;2022-09-21T14:12:00;13.70;;;1.55;;
55031;SDS011;40928;51.076;7.950;2022-09-21T14:14:32;3.33;;;0.38;;
55031;SDS011;40928;51.076;7.950;2022-09-21T14:17:01;22.45;;;1.63;;
55031;SDS011;40928;51.076;7.950;2022-09-21T14:24:46;2.28;;;0.75;;
55031;SDS011;40928;51.076;7.950;2022-09-21T14:32:32;6.55;;;1.30;;
55031;SDS011;40928;51.076;7.950;2022-09-21T14:35:22;1.70;;;0.30;;
55031;SDS011;40928;51.076;7.950;2022-09-21T14:37:51;0.60;;;0.47;;
55031;SDS011;40928;51.076;7.950;2022-09-21T14:40:26;3.58;;;0.75;;
55031;SDS011;40928;51.076;7.950;2022-09-21T14:42:56;1.83;;;0.30;;
55031;SDS011;40928;51.076;7.950;2022-09-21T14:45:44;5.38;;;1.05;;
55031;SDS011;40928;51.076;7.950;2022-09-21T14:59:37;7.53;;;1.33;;
55031;SDS011;40928;51.076;7.950;2022-09-21T15:02:20;4.47;;;1.85;;
55031;SDS011;40928;51.076;7.950;2022-09-21T15:07:23;2.75;;;0.60;;
55031;SDS011;40928;51.076;7.950;2022-09-21T15:10:23;6.63;;;1.98;;
55031;SDS011;40928;51.076;7.950;2022-09-21T15:21:54;5.85;;;0.95;;
55031;SDS011;40928;51.076;7.950;2022-09-21T15:27:04;7.43;;;1.10;;
55031;SDS011;40928;51.076;7.950;2022-09-21T15:29:42;6.43;;;1.35;;
55031;SDS011;40928;51.076;7.950;2022-09-21T15:32:21;14.27;;;1.80;;
55031;SDS011;40928;51.076;7.950;2022-09-21T15:35:27;4.60;;;0.70;;
55031;SDS011;40928;51.076;7.950;2022-09-21T15:37:57;2.10;;;0.52;;
55031;SDS011;40928;51.076;7.950;2022-09-21T15:48:28;12.32;;;1.13;;
55031;SDS011;40928;51.076;7.950;2022-09-21T15:51:00;5.53;;;1.23;;
55031;SDS011;40928;51.076;7.950;2022-09-21T15:53:29;3.25;;;0.50;;
55031;SDS011;40928;51.076;7.950;2022-09-21T15:55:58;1.95;;;0.55;;
55031;SDS011;40928;51.076;7.950;2022-09-21T16:01:02;5.38;;;0.40;;
55031;SDS011;40928;51.076;7.950;2022-09-21T16:03:33;2.42;;;0.60;;
55031;SDS011;40928;51.076;7.950;2022-09-21T16:05:59;1.83;;;0.40;;
55031;SDS011;40928;51.076;7.950;2022-09-21T16:08:42;3.17;;;0.38;;
55031;SDS011;40928;51.076;7.950;2022-09-21T16:17:04;1.92;;;0.43;;
55031;SDS011;40928;51.076;7.950;2022-09-21T16:22:27;1.60;;;0.75;;
55031;SDS011;40928;51.076;7.950;2022-09-21T16:24:57;2.38;;;0.40;;
55031;SDS011;40928;51.076;7.950;2022-09-21T16:27:25;1.02;;;0.40;;
55031;SDS011;40928;51.076;7.950;2022-09-21T16:29:53;6.88;;;0.40;;
55031;SDS011;40928;51.076;7.950;2022-09-21T16:34:51;4.38;;;0.60;;
55031;SDS011;40928;51.076;7.950;2022-09-21T16:37:28;0.52;;;0.30;;
55031;SDS011;40928;51.076;7.950;2022-09-21T16:39:54;3.47;;;0.43;;
55031;SDS011;40928;51.076;7.950;2022-09-21T16:42:22;0.93;;;0.35;;
55031;SDS011;40928;51.076;7.950;2022-09-21T16:44:51;1.35;;;0.22;;
55031;SDS011;40928;51.076;7.950;2022-09-21T16:47:18;4.22;;;0.40;;
55031;SDS011;40928;51.076;7.950;2022-09-21T16:49:52;1.25;;;0.20;;
55031;SDS011;40928;51.076;7.950;2022-09-21T16:52:23;0.95;;;0.38;;
55031;SDS011;40928;51.076;7.950;2022-09-21T16:54:50;1.73;;;0.55;;
55031;SDS011;40928;51.076;7.950;2022-09-21T16:57:16;3.88;;;0.70;;
55031;SDS011;40928;51.076;7.950;2022-09-21T16:59:42;12.57;;;2.03;;
55031;SDS011;40928;51.076;7.950;2022-09-21T17:02:09;16.77;;;5.22;;
55031;SDS011;40928;51.076;7.950;2022-09-21T17:04:38;18.35;;;5.40;;
55031;SDS011;40928;51.076;7.950;2022-09-21T17:07:04;14.02;;;6.50;;
55031;SDS011;40928;51.076;7.950;2022-09-21T17:09:30;17.17;;;6.72;;
55031;SDS011;40928;51.076;7.950;2022-09-21T17:12:02;8.20;;;4.88;;
55031;SDS011;40928;51.076;7.950;2022-09-21T17:14:30;12.63;;;5.05;;
55031;SDS011;40928;51.076;7.950;2022-09-21T17:16:59;14.68;;;6.18;;
55031;SDS011;40928;51.076;7.950;2022-09-21T17:19:31;12.50;;;6.88;;
55031;SDS011;40928;51.076;7.950;2022-09-21T17:21:57;14.93;;;7.88;;
55031;SDS011;40928;51.076;7.950;2022-09-21T17:24:24;13.25;;;6.85;;
55031;SDS011;40928;51.076;7.950;2022-09-21T17:26:50;8.70;;;3.95;;
55031;SDS011;40928;51.076;7.950;2022-09-21T17:29:25;10.05;;;3.95;;
55031;SDS011;40928;51.076;7.950;2022-09-21T17:31:53;10.68;;;5.93;;
55031;SDS011;40928;51.076;7.950;2022-09-21T17:34:23;10.60;;;4.95;;
55031;SDS011;40928;51.076;7.950;2022-09-21T17:36:51;11.95;;;4.68;;
55031;SDS011;40928;51.076;7.950;2022-09-21T17:39:18;7.93;;;4.18;;
55031;SDS011;40928;51.076;7.950;2022-09-21T17:47:17;6.75;;;3.95;;
55031;SDS011;40928;51.076;7.950;2022-09-21T17:49:50;12.75;;;5.75;;
55031;SDS011;40928;51.076;7.950;2022-09-21T17:52:19;10.27;;;4.78;;
55031;SDS011;40928;51.076;7.950;2022-09-21T17:55:06;12.55;;;5.20;;
55031;SDS011;40928;51.076;7.950;2022-09-21T18:02:36;7.82;;;3.67;;
55031;SDS011;40928;51.076;7.950;2022-09-21T18:05:02;5.68;;;2.90;;
55031;SDS011;40928;51.076;7.950;2022-09-21T18:07:38;6.53;;;2.65;;
55031;SDS011;40928;51.076;7.950;2022-09-21T18:10:05;7.28;;;2.70;;
55031;SDS011;40928;51.076;7.950;2022-09-21T18:17:59;6.32;;;3.30;;
55031;SDS011;40928;51.076;7.950;2022-09-21T18:20:49;8.30;;;4.60;;
55031;SDS011;40928;51.076;7.950;2022-09-21T18:26:10;11.57;;;5.00;;
55031;SDS011;40928;51.076;7.950;2022-09-21T18:28:43;11.32;;;5.05;;
55031;SDS011;40928;51.076;7.950;2022-09-21T18:40:14;14.02;;;7.45;;
55031;SDS011;40928;51.076;7.950;2022-09-21T18:45:38;14.98;;;6.43;;
55031;SDS011;40928;51.076;7.950;2022-09-21T18:48:15;13.18;;;5.70;;
55031;SDS011;40928;51.076;7.950;2022-09-21T18:50:53;8.55;;;4.65;;
55031;SDS011;40928;51.076;7.950;2022-09-21T18:56:14;11.65;;;4.32;;
55031;SDS011;40928;51.076;7.950;2022-09-21T18:58:40;7.32;;;3.35;;
55031;SDS011;40928;51.076;7.950;2022-09-21T19:01:12;11.73;;;3.75;;
55031;SDS011;40928;51.076;7.950;2022-09-21T19:03:39;6.55;;;3.40;;
55031;SDS011;40928;51.076;7.950;2022-09-21T19:09:08;8.85;;;2.70;;
55031;SDS011;40928;51.076;7.950;2022-09-21T19:20:33;5.95;;;1.67;;
55031;SDS011;40928;51.076;7.950;2022-09-21T19:25:43;3.80;;;1.35;;
55031;SDS011;40928;51.076;7.950;2022-09-21T19:31:01;2.72;;;1.50;;
55031;SDS011;40928;51.076;7.950;2022-09-21T19:33:34;5.13;;;2.75;;
55031;SDS011;40928;51.076;7.950;2022-09-21T19:36:00;7.50;;;3.20;;
55031;SDS011;40928;51.076;7.950;2022-09-21T19:38:26;6.88;;;2.85;;
55031;SDS011;40928;51.076;7.950;2022-09-21T19:41:03;4.65;;;2.40;;
55031;SDS011;40928;51.076;7.950;2022-09-21T19:43:56;5.65;;;2.08;;
55031;SDS011;40928;51.076;7.950;2022-09-21T19:46:44;5.07;;;2.00;;
55031;SDS011;40928;51.076;7.950;2022-09-21T19:49:13;5.70;;;1.60;;
55031;SDS011;40928;51.076;7.950;2022-09-21T19:51:45;4.72;;;1.20;;